createdAt,value
2022-11-29T00:00:30.168Z,2.38
2022-11-29T00:02:59.983Z,2.08
2022-11-29T00:05:30.558Z,2.36
2022-11-29T00:08:00.470Z,2.27
2022-11-29T00:10:30.261Z,2.14
2022-11-29T00:13:00.110Z,2.23
2022-11-29T00:15:29.912Z,2.13
2022-11-29T00:18:00.034Z,2.15
2022-11-29T00:20:29.911Z,2.21
2022-11-29T00:23:01.054Z,2.21
2022-11-29T00:25:30.843Z,2.36
2022-11-29T00:28:00.723Z,2.26
2022-11-29T00:30:30.877Z,2.32
2022-11-29T00:33:03.115Z,2.29
2022-11-29T00:35:33.587Z,2.24
2022-11-29T00:38:03.661Z,2.52
2022-11-29T00:40:33.802Z,2.57
2022-11-29T00:43:03.814Z,2.46
2022-11-29T00:45:33.734Z,2.29
2022-11-29T00:48:03.898Z,2.32
2022-11-29T00:50:33.677Z,2.51
2022-11-29T00:53:07.692Z,2.14
2022-11-29T00:55:37.492Z,2.32
2022-11-29T00:58:07.482Z,2.25
2022-11-29T01:00:37.664Z,2.17
2022-11-29T01:03:07.375Z,2.35
2022-11-29T01:05:37.245Z,2.16
2022-11-29T01:08:07.269Z,2.22
2022-11-29T01:10:37.156Z,2.08
2022-11-29T01:13:07.239Z,1.95
2022-11-29T01:15:37.632Z,2.13
2022-11-29T01:18:07.164Z,2.06
2022-11-29T01:20:36.993Z,2.40
2022-11-29T01:23:06.992Z,2.40
2022-11-29T01:25:36.819Z,2.13
2022-11-29T01:28:06.833Z,2.04
2022-11-29T01:30:38.530Z,2.19
2022-11-29T01:33:08.346Z,2.19
2022-11-29T01:35:38.167Z,1.93
2022-11-29T01:38:07.838Z,2.02
2022-11-29T01:40:37.690Z,1.88
2022-11-29T01:43:16.584Z,2.03
2022-11-29T01:45:50.250Z,2.19
2022-11-29T01:48:21.520Z,1.94
2022-11-29T01:50:51.854Z,2.21
2022-11-29T01:53:22.424Z,2.21
2022-11-29T01:55:57.772Z,2.28
2022-11-29T01:58:28.360Z,2.01
2022-11-29T02:00:59.812Z,2.20
2022-11-29T02:03:29.952Z,2.23
2022-11-29T02:06:00.537Z,2.20
2022-11-29T02:08:36.615Z,2.20
2022-11-29T02:11:46.752Z,1.99
2022-11-29T02:14:33.813Z,1.89
2022-11-29T02:17:06.682Z,1.91
2022-11-29T02:19:45.471Z,1.84
2022-11-29T02:22:33.075Z,1.81
2022-11-29T02:25:08.909Z,1.93
2022-11-29T02:28:05.419Z,2.21
2022-11-29T02:30:47.189Z,2.11
2022-11-29T02:33:32.035Z,1.88
2022-11-29T02:36:11.068Z,1.90
2022-11-29T02:38:49.981Z,2.09
2022-11-29T02:41:56.019Z,2.10
2022-11-29T02:44:34.634Z,2.03
2022-11-29T02:47:10.302Z,2.25
2022-11-29T02:49:55.059Z,2.20
2022-11-29T02:52:36.647Z,2.20
2022-11-29T02:55:09.791Z,2.35
2022-11-29T02:57:51.872Z,2.21
2022-11-29T03:00:23.480Z,2.02
2022-11-29T03:03:10.906Z,1.93
2022-11-29T03:05:52.358Z,1.88
2022-11-29T03:08:56.499Z,1.88
2022-11-29T03:11:37.936Z,2.04
2022-11-29T03:14:30.039Z,2.04
2022-11-29T03:17:15.163Z,1.86
2022-11-29T03:20:03.740Z,1.93
2022-11-29T03:22:51.038Z,1.91
2022-11-29T03:25:58.932Z,2.11
2022-11-29T03:28:31.872Z,2.12
2022-11-29T03:31:21.216Z,1.94
2022-11-29T03:33:54.063Z,1.97
2022-11-29T03:36:45.369Z,2.00
2022-11-29T03:39:21.776Z,1.90
2022-11-29T03:41:54.490Z,1.91
2022-11-29T03:44:38.519Z,2.11
2022-11-29T03:47:13.875Z,2.09
2022-11-29T03:49:58.692Z,1.90
2022-11-29T03:52:56.003Z,1.93
2022-11-29T03:55:50.472Z,2.19
2022-11-29T03:58:28.770Z,1.97
2022-11-29T04:01:07.288Z,1.98
2022-11-29T04:03:59.765Z,2.13
2022-11-29T04:06:41.689Z,2.09
2022-11-29T04:09:20.399Z,1.93
2022-11-29T04:12:05.271Z,2.01
2022-11-29T04:14:54.889Z,1.82
2022-11-29T04:17:39.755Z,1.94
2022-11-29T04:20:48.377Z,2.04
2022-11-29T04:23:29.456Z,1.98
2022-11-29T04:26:08.036Z,2.15
2022-11-29T04:28:40.884Z,2.15
2022-11-29T04:31:31.284Z,2.06
2022-11-29T04:34:20.183Z,1.95
2022-11-29T04:37:17.032Z,2.18
2022-11-29T04:40:04.839Z,1.92
2022-11-29T04:42:46.487Z,2.02
2022-11-29T04:45:30.900Z,2.08
2022-11-29T04:48:10.221Z,1.95
2022-11-29T04:50:43.054Z,2.34
2022-11-29T04:53:15.559Z,2.05
2022-11-29T04:56:00.458Z,2.43
2022-11-29T04:58:48.580Z,2.19
2022-11-29T05:01:24.725Z,2.06
2022-11-29T05:04:21.837Z,2.19
2022-11-29T05:07:13.740Z,2.31
2022-11-29T05:09:49.621Z,2.31
2022-11-29T05:12:40.188Z,2.10
2022-11-29T05:15:32.578Z,2.15
2022-11-29T05:18:23.644Z,2.17
2022-11-29T05:21:05.225Z,2.17
2022-11-29T05:23:54.560Z,2.21
2022-11-29T05:26:50.055Z,2.16
2022-11-29T05:29:43.636Z,2.22
2022-11-29T05:32:22.066Z,1.99
2022-11-29T05:35:31.348Z,2.23
2022-11-29T05:38:10.427Z,2.01
2022-11-29T05:40:43.568Z,2.33
2022-11-29T05:43:49.770Z,2.10
2022-11-29T05:46:31.332Z,2.23
2022-11-29T05:49:09.826Z,2.11
2022-11-29T05:52:01.963Z,2.08
2022-11-29T05:54:37.835Z,2.20
2022-11-29T05:57:19.001Z,2.19
2022-11-29T05:59:51.191Z,2.11
2022-11-29T06:02:48.641Z,2.30
2022-11-29T06:05:24.492Z,2.30
2022-11-29T06:08:15.335Z,2.52
2022-11-29T06:10:53.726Z,2.26
2022-11-29T06:13:29.292Z,2.23
2022-11-29T06:16:27.643Z,2.23
2022-11-29T06:19:32.275Z,2.09
2022-11-29T06:22:25.861Z,2.34
2022-11-29T06:25:21.598Z,2.30
2022-11-29T06:28:11.346Z,2.25
2022-11-29T06:31:02.211Z,2.32
2022-11-29T06:33:55.798Z,2.36
2022-11-29T06:36:35.278Z,2.36
2022-11-29T06:39:06.754Z,2.24
2022-11-29T06:41:36.912Z,2.40
2022-11-29T06:44:07.535Z,2.34
2022-11-29T06:46:52.231Z,2.27
2022-11-29T06:49:27.993Z,2.27
2022-11-29T06:52:15.688Z,2.38
2022-11-29T06:54:51.086Z,2.38
2022-11-29T06:57:32.981Z,2.31
2022-11-29T07:00:08.815Z,2.37
2022-11-29T07:02:47.199Z,2.48
2022-11-29T07:05:22.839Z,2.30
2022-11-29T07:07:55.700Z,2.24
2022-11-29T07:10:27.709Z,2.29
2022-11-29T07:12:58.061Z,2.29
2022-11-29T07:15:28.269Z,2.46
2022-11-29T07:18:03.848Z,2.42
2022-11-29T07:20:36.969Z,2.34
2022-11-29T07:23:15.961Z,2.31
2022-11-29T07:26:11.907Z,2.49
2022-11-29T07:29:01.795Z,2.33
2022-11-29T07:31:37.483Z,2.64
2022-11-29T07:34:36.195Z,2.34
2022-11-29T07:37:32.080Z,2.54
2022-11-29T07:40:04.650Z,2.52
2022-11-29T07:42:55.783Z,2.78
2022-11-29T07:45:36.156Z,2.82
2022-11-29T07:48:07.072Z,2.63
2022-11-29T07:50:36.950Z,2.84
2022-11-29T07:53:06.923Z,2.88
2022-11-29T07:55:37.369Z,2.91
2022-11-29T07:58:07.091Z,3.23
2022-11-29T08:00:36.904Z,3.14
2022-11-29T08:03:07.276Z,3.10
2022-11-29T08:05:38.468Z,3.10
2022-11-29T08:08:08.578Z,3.25
2022-11-29T08:10:39.145Z,3.37
2022-11-29T08:13:08.684Z,3.37
2022-11-29T08:15:39.975Z,3.26
2022-11-29T08:18:09.758Z,3.56
2022-11-29T08:20:41.741Z,3.33
2022-11-29T08:23:13.637Z,3.46
2022-11-29T08:25:43.695Z,3.46
2022-11-29T08:28:13.555Z,3.42
2022-11-29T08:30:43.401Z,3.40
2022-11-29T08:33:13.248Z,3.60
2022-11-29T08:35:43.047Z,3.52
2022-11-29T08:38:12.823Z,3.52
2022-11-29T08:40:42.620Z,3.61
2022-11-29T08:43:12.460Z,3.57
2022-11-29T08:45:42.318Z,3.40
2022-11-29T08:48:13.688Z,3.63
2022-11-29T08:50:43.494Z,3.51
2022-11-29T08:53:31.153Z,3.58
2022-11-29T08:56:08.492Z,3.38
2022-11-29T08:58:33.561Z,3.54
2022-11-29T09:01:03.480Z,3.69
2022-11-29T09:03:53.207Z,3.61
2022-11-29T09:06:22.950Z,3.74
2022-11-29T09:08:52.739Z,3.81
2022-11-29T09:11:23.530Z,3.75
2022-11-29T09:13:56.599Z,3.63
2022-11-29T09:16:29.048Z,3.88
2022-11-29T09:18:59.143Z,3.88
2022-11-29T09:21:31.535Z,3.77
2022-11-29T09:24:05.689Z,3.76
2022-11-29T09:26:38.190Z,3.87
2022-11-29T09:29:08.344Z,3.62
2022-11-29T09:31:38.737Z,3.87
2022-11-29T09:34:08.569Z,3.89
2022-11-29T09:36:38.356Z,3.83
2022-11-29T09:39:09.858Z,3.89
2022-11-29T09:42:03.591Z,4.03
2022-11-29T09:44:53.118Z,3.98
2022-11-29T09:47:37.095Z,3.98
2022-11-29T09:50:24.873Z,3.99
2022-11-29T09:53:06.757Z,4.04
2022-11-29T09:56:02.266Z,4.10
2022-11-29T09:58:37.063Z,4.04
2022-11-29T10:01:09.887Z,4.19
2022-11-29T10:03:46.458Z,4.11
2022-11-29T10:06:27.823Z,4.34
2022-11-29T10:09:03.293Z,4.45
2022-11-29T10:11:36.157Z,4.27
2022-11-29T10:14:18.130Z,4.41
2022-11-29T10:17:08.626Z,4.43
2022-11-29T10:19:41.800Z,4.44
2022-11-29T10:22:19.890Z,4.71
2022-11-29T10:24:53.051Z,4.68
2022-11-29T10:27:26.254Z,4.74
2022-11-29T10:29:56.739Z,4.73
2022-11-29T10:32:28.406Z,4.60
2022-11-29T10:35:00.356Z,4.46
2022-11-29T10:37:32.887Z,4.52
2022-11-29T10:40:07.723Z,4.80
2022-11-29T10:42:52.625Z,4.79
2022-11-29T10:45:31.655Z,4.79
2022-11-29T10:48:19.311Z,4.74
2022-11-29T10:50:51.028Z,4.59
2022-11-29T10:53:27.040Z,4.65
2022-11-29T10:56:12.092Z,4.70
2022-11-29T10:58:57.133Z,4.70
2022-11-29T11:01:29.090Z,4.80
2022-11-29T11:04:03.384Z,4.80
2022-11-29T11:06:48.486Z,4.92
2022-11-29T11:09:30.031Z,4.88
2022-11-29T11:12:02.655Z,4.80
2022-11-29T11:14:37.504Z,4.76
2022-11-29T11:17:26.420Z,4.83
2022-11-29T11:20:00.711Z,5.04
2022-11-29T11:22:32.567Z,4.89
2022-11-29T11:25:13.855Z,4.83
2022-11-29T11:27:43.769Z,4.86
2022-11-29T11:30:28.104Z,4.86
2022-11-29T11:33:17.216Z,4.81
2022-11-29T11:36:06.564Z,4.88
2022-11-29T11:38:41.386Z,4.73
2022-11-29T11:41:22.826Z,4.89
2022-11-29T11:43:55.990Z,4.91
2022-11-29T11:46:47.491Z,4.81
2022-11-29T11:49:32.111Z,4.83
2022-11-29T11:52:02.571Z,5.02
2022-11-29T11:54:32.763Z,4.95
2022-11-29T11:57:02.522Z,4.90
2022-11-29T11:59:32.289Z,4.89
2022-11-29T12:02:02.119Z,4.88
2022-11-29T12:04:38.074Z,4.88
2022-11-29T12:07:13.373Z,5.01
2022-11-29T12:09:52.076Z,5.01
2022-11-29T12:12:30.757Z,4.94
2022-11-29T12:15:21.640Z,4.94
2022-11-29T12:17:54.458Z,5.00
2022-11-29T12:20:28.248Z,5.03
2022-11-29T12:23:16.434Z,5.00
2022-11-29T12:25:55.336Z,5.10
2022-11-29T12:28:30.652Z,5.14
2022-11-29T12:31:20.242Z,4.87
2022-11-29T12:34:02.248Z,5.17
2022-11-29T12:36:40.900Z,5.19
2022-11-29T12:39:13.635Z,5.26
2022-11-29T12:41:53.784Z,5.13
2022-11-29T12:44:40.285Z,5.03
2022-11-29T12:47:36.131Z,5.23
2022-11-29T12:49:56.491Z,5.03
2022-11-29T12:52:38.702Z,5.11
2022-11-29T12:55:20.494Z,5.14
2022-11-29T12:58:04.695Z,5.17
2022-11-29T13:00:37.861Z,5.16
2022-11-29T13:03:10.481Z,5.11
2022-11-29T13:05:58.190Z,5.06
2022-11-29T13:08:30.999Z,5.06
2022-11-29T13:11:19.905Z,5.29
2022-11-29T13:17:00.567Z,5.25
2022-11-29T13:19:42.636Z,5.33
2022-11-29T13:22:21.191Z,5.11
2022-11-29T13:24:57.089Z,5.06
2022-11-29T13:27:30.241Z,4.99
2022-11-29T13:30:01.990Z,4.95
2022-11-29T13:32:43.873Z,4.93
2022-11-29T13:35:19.313Z,4.88
2022-11-29T13:38:06.704Z,4.94
2022-11-29T13:41:00.912Z,4.96
2022-11-29T13:43:42.752Z,4.95
2022-11-29T13:46:20.861Z,5.30
2022-11-29T13:48:54.025Z,5.33
2022-11-29T13:51:35.399Z,5.31
2022-11-29T13:54:09.251Z,5.12
2022-11-29T13:56:48.326Z,5.18
2022-11-29T13:59:24.029Z,5.05
2022-11-29T14:01:54.856Z,5.06
2022-11-29T14:04:28.009Z,5.21
2022-11-29T14:07:19.717Z,5.06
2022-11-29T14:10:07.992Z,5.12
2022-11-29T14:12:46.646Z,5.03
2022-11-29T14:15:32.094Z,5.21
2022-11-29T14:18:06.257Z,5.00
2022-11-29T14:20:44.984Z,5.20
2022-11-29T14:23:17.835Z,5.06
2022-11-29T14:26:03.241Z,4.95
2022-11-29T14:28:36.552Z,4.99
2022-11-29T14:31:09.299Z,4.96
2022-11-29T14:33:51.323Z,4.96
2022-11-29T14:36:48.133Z,4.94
2022-11-29T14:39:27.277Z,4.83
2022-11-29T14:42:06.501Z,5.10
2022-11-29T14:44:39.300Z,5.08
2022-11-29T14:47:29.070Z,4.80
2022-11-29T14:50:01.378Z,4.83
2022-11-29T14:52:43.220Z,4.84
2022-11-29T14:55:24.054Z,4.94
2022-11-29T14:58:06.275Z,4.74
2022-11-29T15:00:50.571Z,4.88
2022-11-29T15:03:32.460Z,4.76
2022-11-29T15:06:08.647Z,4.74
2022-11-29T15:08:48.000Z,4.85
2022-11-29T15:11:26.174Z,4.67
2022-11-29T15:14:08.665Z,4.96
2022-11-29T15:16:47.533Z,4.83
2022-11-29T15:19:36.653Z,4.68
2022-11-29T15:22:18.931Z,4.61
2022-11-29T15:25:01.123Z,4.61
2022-11-29T15:27:31.248Z,4.46
2022-11-29T15:30:21.999Z,4.68
2022-11-29T15:32:51.669Z,4.53
2022-11-29T15:35:22.373Z,4.53
2022-11-29T15:37:54.266Z,4.71
2022-11-29T15:40:28.476Z,4.57
2022-11-29T15:43:01.994Z,4.45
2022-11-29T15:45:37.948Z,4.55
2022-11-29T15:48:19.820Z,4.63
2022-11-29T15:50:58.171Z,4.77
2022-11-29T15:53:43.377Z,4.51
2022-11-29T15:56:32.489Z,4.45
2022-11-29T15:59:05.168Z,4.26
2022-11-29T16:01:35.960Z,4.47
2022-11-29T16:04:06.804Z,4.60
2022-11-29T16:06:42.435Z,4.25
2022-11-29T16:09:18.100Z,4.48
2022-11-29T16:11:49.514Z,4.38
2022-11-29T16:14:24.751Z,4.30
2022-11-29T16:16:58.073Z,4.21
2022-11-29T16:19:31.256Z,4.22
2022-11-29T16:22:15.011Z,4.23
2022-11-29T16:24:56.587Z,4.56
2022-11-29T16:27:34.969Z,4.09
2022-11-29T16:30:08.888Z,4.30
2022-11-29T16:32:47.259Z,4.33
2022-11-29T16:35:33.428Z,4.35
2022-11-29T16:38:08.646Z,4.27
2022-11-29T16:40:39.795Z,4.18
2022-11-29T16:43:26.143Z,4.28
2022-11-29T16:46:26.493Z,4.33
2022-11-29T16:48:58.653Z,4.08
2022-11-29T16:51:38.988Z,4.10
2022-11-29T16:54:23.836Z,4.13
2022-11-29T16:56:56.226Z,4.56
2022-11-29T16:59:28.642Z,4.50
2022-11-29T17:01:58.693Z,4.52
2022-11-29T17:04:29.033Z,4.28
2022-11-29T17:06:59.174Z,4.09
2022-11-29T17:09:33.101Z,4.19
2022-11-29T17:12:03.981Z,3.98
2022-11-29T17:14:33.842Z,4.03
2022-11-29T17:17:04.363Z,3.85
2022-11-29T17:19:34.012Z,3.93
2022-11-29T17:22:04.993Z,3.93
2022-11-29T17:24:35.802Z,3.79
2022-11-29T17:27:06.701Z,3.75
2022-11-29T17:29:36.783Z,3.70
2022-11-29T17:32:06.890Z,3.58
2022-11-29T17:34:37.121Z,3.75
2022-11-29T17:37:07.343Z,3.49
2022-11-29T17:39:39.197Z,3.38
2022-11-29T17:42:12.766Z,3.44
2022-11-29T17:44:44.893Z,3.38
2022-11-29T17:47:22.501Z,3.32
2022-11-29T17:49:52.425Z,3.12
2022-11-29T17:52:22.411Z,3.06
2022-11-29T17:54:52.181Z,2.94
2022-11-29T17:57:26.259Z,3.05
2022-11-29T17:59:56.648Z,2.87
2022-11-29T18:02:26.539Z,2.78
2022-11-29T18:04:57.352Z,2.81
2022-11-29T18:07:27.759Z,2.69
2022-11-29T18:09:58.764Z,2.68
2022-11-29T18:12:28.786Z,2.85
2022-11-29T18:15:00.893Z,2.65
2022-11-29T18:17:30.932Z,2.68
2022-11-29T18:20:01.744Z,2.63
2022-11-29T18:22:31.631Z,2.61
2022-11-29T18:25:36.493Z,2.57
2022-11-29T18:27:36.105Z,2.58
2022-11-29T18:30:09.544Z,2.55
2022-11-29T18:32:39.687Z,2.60
2022-11-29T18:35:11.800Z,2.52
2022-11-29T18:38:13.601Z,2.57
2022-11-29T18:40:14.780Z,2.50
2022-11-29T18:42:43.561Z,2.71
2022-11-29T18:45:13.368Z,2.69
2022-11-29T18:47:46.814Z,2.57
2022-11-29T18:50:16.447Z,2.51
2022-11-29T18:52:53.812Z,2.53
2022-11-29T18:55:31.438Z,2.47
2022-11-29T18:58:01.325Z,2.33
2022-11-29T19:00:32.532Z,2.30
2022-11-29T19:03:02.822Z,2.22
2022-11-29T19:05:32.607Z,2.06
2022-11-29T19:08:03.572Z,1.99
2022-11-29T19:10:33.532Z,1.90
2022-11-29T19:13:06.398Z,1.81
2022-11-29T19:15:36.764Z,1.60
2022-11-29T19:18:06.814Z,1.56
2022-11-29T19:20:36.628Z,1.53
2022-11-29T19:23:06.638Z,1.47
2022-11-29T19:25:37.609Z,1.45
2022-11-29T19:28:13.785Z,1.40
2022-11-29T19:30:40.247Z,1.38
2022-11-29T19:33:10.122Z,1.34
2022-11-29T19:35:40.591Z,1.36
2022-11-29T19:38:10.405Z,1.25
2022-11-29T19:40:43.312Z,1.27
2022-11-29T19:43:15.543Z,1.29
2022-11-29T19:45:45.448Z,1.28
2022-11-29T19:48:15.140Z,1.25
2022-11-29T19:50:44.957Z,1.29
2022-11-29T19:53:16.343Z,1.22
2022-11-29T19:55:45.236Z,1.17
2022-11-29T19:58:17.787Z,1.11
2022-11-29T20:00:47.845Z,1.10
2022-11-29T20:03:17.456Z,1.10
2022-11-29T20:05:55.511Z,1.10
2022-11-29T20:08:26.049Z,1.10
2022-11-29T20:10:56.142Z,1.09
2022-11-29T20:13:25.952Z,1.10
2022-11-29T20:15:55.919Z,1.06
2022-11-29T20:18:27.260Z,1.06
2022-11-29T20:20:57.112Z,1.11
2022-11-29T20:23:29.016Z,1.02
2022-11-29T20:26:01.021Z,1.02
2022-11-29T20:28:31.344Z,0.96
2022-11-29T20:31:06.128Z,1.03
2022-11-29T20:33:36.223Z,0.93
2022-11-29T20:36:19.789Z,0.90
2022-11-29T20:38:53.790Z,0.90
2022-11-29T20:41:35.357Z,0.88
2022-11-29T20:44:06.500Z,0.89
2022-11-29T20:46:54.611Z,0.79
2022-11-29T20:49:24.531Z,0.89
2022-11-29T20:52:01.014Z,0.78
2022-11-29T20:54:31.904Z,0.75
2022-11-29T20:57:01.762Z,0.64
2022-11-29T20:59:31.595Z,0.59
2022-11-29T21:02:02.650Z,0.62
2022-11-29T21:04:32.440Z,0.54
2022-11-29T21:07:02.225Z,0.56
2022-11-29T21:09:32.226Z,0.52
2022-11-29T21:12:04.395Z,0.48
2022-11-29T21:14:34.626Z,0.28
2022-11-29T21:17:05.326Z,0.28
2022-11-29T21:19:36.798Z,0.23
2022-11-29T21:22:19.881Z,0.20
2022-11-29T21:25:10.897Z,0.18
2022-11-29T21:27:42.205Z,0.08
2022-11-29T21:30:23.563Z,0.11
2022-11-29T21:32:55.569Z,0.03
2022-11-29T21:35:26.346Z,0.00
2022-11-29T21:37:59.348Z,0.06
2022-11-29T21:40:29.792Z,-0.20
2022-11-29T21:43:00.710Z,-0.12
2022-11-29T21:45:30.666Z,-0.15
2022-11-29T21:48:02.052Z,-0.21
2022-11-29T21:50:31.937Z,-0.29
2022-11-29T21:53:02.091Z,-0.15
2022-11-29T21:55:32.722Z,-0.21
2022-11-29T21:58:02.971Z,-0.18
2022-11-29T22:00:37.296Z,-0.27
2022-11-29T22:03:04.639Z,-0.27
2022-11-29T22:05:34.609Z,-0.35
2022-11-29T22:08:05.401Z,-0.40
2022-11-29T22:10:35.371Z,-0.42
2022-11-29T22:13:12.445Z,-0.48
2022-11-29T22:15:44.427Z,-0.51
2022-11-29T22:18:19.808Z,-0.47
2022-11-29T22:20:50.887Z,-0.48
2022-11-29T22:23:20.816Z,-0.52
2022-11-29T22:25:50.810Z,-0.56
2022-11-29T22:28:24.363Z,-0.61
2022-11-29T22:30:54.227Z,-0.61
2022-11-29T22:33:24.105Z,-0.62
2022-11-29T22:35:54.634Z,-0.64
2022-11-29T22:38:26.598Z,-0.64
2022-11-29T22:41:02.085Z,-0.69
2022-11-29T22:43:33.103Z,-0.72
2022-11-29T22:46:17.570Z,-0.81
2022-11-29T22:48:55.335Z,-0.86
2022-11-29T22:51:27.380Z,-0.89
2022-11-29T22:53:58.906Z,-0.90
2022-11-29T22:56:31.583Z,-0.92
2022-11-29T22:59:01.659Z,-0.94
2022-11-29T23:01:33.905Z,-0.91
2022-11-29T23:04:07.180Z,-0.98
2022-11-29T23:06:41.284Z,-1.04
2022-11-29T23:09:16.589Z,-1.04
2022-11-29T23:11:49.286Z,-0.70
2022-11-29T23:14:22.333Z,-1.00
2022-11-29T23:16:54.646Z,-1.02
2022-11-29T23:19:24.371Z,-1.06
2022-11-29T23:21:55.889Z,-1.06
2022-11-29T23:24:25.715Z,-1.01
2022-11-29T23:26:57.104Z,-1.12
2022-11-29T23:29:27.020Z,-1.13
2022-11-29T23:31:56.945Z,-1.14
2022-11-29T23:34:26.667Z,-1.16
2022-11-29T23:37:04.522Z,-1.21
2022-11-29T23:39:37.508Z,-1.21
2022-11-29T23:42:07.147Z,-1.18
2022-11-29T23:44:36.982Z,-1.20
2022-11-29T23:47:07.145Z,-1.22
2022-11-29T23:49:38.617Z,-1.22
2022-11-29T23:52:08.409Z,-1.25
2022-11-29T23:54:38.249Z,-1.27
2022-11-29T23:57:08.112Z,-1.29
2022-11-29T23:59:38.117Z,-1.30
